Terminal Aerodrome Forecast
Issued by NWS Pittsburgh, PA

Current Version | Previous Version | Graphics & Text | Print | Product List | Glossary On
Versions: 1 2 3 4 5 6 7 8 9 10 11 12 13 14 15 16 17 18 19 20 21 22 23 24 25 26 27 28 29 30 31 32
908
FTUS41 KPBZ 171121
TAFPIT
TAF
KPIT 171121Z 1712/1818 33008KT P6SM OVC025
     FM171300 24003KT P6SM BKN050
     FM171900 18003KT P6SM SCT100
     FM180500 17005KT P6SM VCSH OVC050 WS020/21040KT
     FM181000 18006KT P6SM -RA OVC030 WS020/21040KT=

USA.gov is the U.S. government's official web portal to all federal, state and local government web resources and services.